Time;durP1;ratioP1;P1;durP2;ratioP2;P2;SDS_P1;SDS_P2;PMS_P1;PMS_P2;Temp;Humidity;BMP_temperature;BMP_pressure;BME280_temperature;BME280_humidity;BME280_pressure;Samples;Min_cycle;Max_cycle;Signal;HPM_P1;HPM_P2
2021/09/09 00:01:21;;;;;;;13.17;8.33;;;17.80;99.90;;;;;;20913604;28;20033;-75
2021/09/09 00:11:22;;;;;;;11.23;7.90;;;17.50;99.90;;;;;;20913112;28;20029;-75
2021/09/09 00:21:23;;;;;;;10.73;6.80;;;16.80;99.90;;;;;;20910828;28;20033;-75
2021/09/09 00:31:24;;;;;;;12.37;8.67;;;17.20;99.90;;;;;;20895540;28;20037;-75
2021/09/09 00:41:30;;;;;;;;;;;17.40;99.90;;;;;;20911313;28;20037;-75
2021/09/09 00:51:31;;;;;;;14.50;8.57;;;17.30;99.90;;;;;;20909520;28;20435;-75
2021/09/09 01:01:32;;;;;;;15.20;9.03;;;17.20;99.90;;;;;;20909327;28;20049;-75
2021/09/09 01:11:33;;;;;;;15.57;8.73;;;16.90;99.90;;;;;;20908877;28;20024;-74
2021/09/09 01:21:34;;;;;;;20.87;9.53;;;16.20;99.90;;;;;;20908389;28;20032;-75
2021/09/09 01:31:35;;;;;;;15.50;8.85;;;16.20;99.90;;;;;;20913129;28;20045;-75
2021/09/09 01:41:36;;;;;;;14.17;8.97;;;16.20;99.90;;;;;;20907287;28;20024;-75
2021/09/09 01:51:37;;;;;;;14.03;9.43;;;16.40;99.90;;;;;;20907089;28;20052;-75
2021/09/09 02:01:38;;;;;;;16.77;9.37;;;16.40;99.90;;;;;;20894232;28;20032;-75
2021/09/09 02:11:39;;;;;;;15.37;10.43;;;16.40;99.90;;;;;;20922317;28;20029;-75
2021/09/09 02:21:41;;;;;;;13.73;9.87;;;16.10;99.90;;;;;;20921967;28;20028;-75
2021/09/09 02:31:42;;;;;;;15.30;9.57;;;15.90;99.90;;;;;;20920109;28;20040;-75
2021/09/09 02:41:42;;;;;;;15.40;8.60;;;16.20;99.90;;;;;;20920060;28;20563;-75
2021/09/09 02:51:43;;;;;;;13.40;8.60;;;16.10;99.90;;;;;;20919964;28;20028;-75
2021/09/09 03:01:44;;;;;;;11.63;8.23;;;16.10;99.90;;;;;;20919612;28;20025;-75
2021/09/09 03:11:45;;;;;;;11.93;8.57;;;16.10;99.90;;;;;;20918710;28;20114;-75
2021/09/09 03:21:46;;;;;;;10.43;8.20;;;16.30;99.90;;;;;;20917067;28;20399;-75
2021/09/09 03:31:47;;;;;;;14.83;9.43;;;16.10;99.90;;;;;;20917115;28;20037;-75
2021/09/09 03:41:48;;;;;;;13.60;8.57;;;16.10;99.90;;;;;;20918448;28;20533;-75
2021/09/09 03:51:48;;;;;;;12.60;9.03;;;16.20;99.90;;;;;;20914946;28;20514;-76
2021/09/09 04:01:49;;;;;;;14.00;8.63;;;16.20;99.90;;;;;;20915120;28;20112;-75
2021/09/09 04:11:50;;;;;;;11.93;8.20;;;16.10;99.90;;;;;;20904919;28;20031;-76
2021/09/09 04:21:52;;;;;;;11.77;8.97;;;16.10;99.90;;;;;;20905251;28;20051;-76
2021/09/09 04:31:53;;;;;;;12.15;8.18;;;16.10;99.90;;;;;;20910622;28;20040;-76
2021/09/09 04:41:54;;;;;;;14.20;8.30;;;16.20;99.90;;;;;;20911336;28;20084;-76
2021/09/09 04:51:54;;;;;;;12.40;8.60;;;16.20;99.90;;;;;;20892752;28;20033;-76
2021/09/09 05:01:55;;;;;;;12.00;8.73;;;16.00;99.90;;;;;;20909805;28;20050;-76
2021/09/09 05:11:56;;;;;;;12.80;9.17;;;16.00;99.90;;;;;;20909704;28;20121;-76
2021/09/09 05:21:57;;;;;;;18.27;9.63;;;15.80;99.90;;;;;;20917659;28;20032;-77
2021/09/09 05:31:58;;;;;;;15.10;9.37;;;15.90;99.90;;;;;;20908268;28;20056;-76
2021/09/09 05:41:59;;;;;;;16.43;8.57;;;16.00;99.90;;;;;;20944345;22;20052;-75
2021/09/09 05:52:00;;;;;;;13.30;9.47;;;16.50;99.90;;;;;;20983123;28;20081;-75
2021/09/09 06:02:00;;;;;;;11.40;8.50;;;16.90;99.90;;;;;;21072545;28;20052;-74
2021/09/09 06:12:01;;;;;;;13.60;9.30;;;17.10;99.90;;;;;;21072303;28;20489;-75
2021/09/09 06:22:02;;;;;;;11.03;8.27;;;17.60;99.90;;;;;;21072510;28;20114;-75
2021/09/09 06:32:03;;;;;;;12.60;8.47;;;18.20;99.90;;;;;;21054005;28;20127;-75
2021/09/09 06:42:04;;;;;;;12.33;8.90;;;18.70;99.90;;;;;;21071449;28;20039;-75
2021/09/09 06:52:06;;;;;;;18.40;8.80;;;19.40;99.90;;;;;;21081033;28;20115;-75
2021/09/09 07:02:06;;;;;;;10.95;8.50;;;19.70;99.90;;;;;;21085316;28;20032;-75
2021/09/09 07:12:07;;;;;;;15.53;9.23;;;20.20;99.90;;;;;;21084945;28;20086;-78
2021/09/09 07:22:08;;;;;;;14.53;10.20;;;20.30;99.90;;;;;;21084357;28;20036;-78
2021/09/09 07:32:09;;;;;;;13.30;8.67;;;20.30;99.90;;;;;;21087421;28;20028;-78
2021/09/09 07:42:10;;;;;;;13.67;9.77;;;21.40;99.90;;;;;;21089480;28;20090;-77
2021/09/09 07:52:10;;;;;;;14.00;9.70;;;20.40;99.90;;;;;;21090098;28;20020;-77
2021/09/09 08:02:11;;;;;;;13.43;8.77;;;20.00;99.90;;;;;;21087567;28;20051;-77
2021/09/09 08:12:12;;;;;;;11.50;7.70;;;21.60;99.90;;;;;;21088471;28;20066;-78
2021/09/09 08:22:13;;;;;;;14.30;8.77;;;23.30;99.90;;;;;;21068335;28;20077;-78
2021/09/09 08:32:14;;;;;;;19.33;9.23;;;23.20;99.90;;;;;;21066449;28;20031;-79
2021/09/09 08:42:15;;;;;;;;;;;23.20;99.90;;;;;;21100906;28;20389;-80
2021/09/09 08:52:16;;;;;;;10.80;7.03;;;24.70;99.90;;;;;;21079633;28;19908;-79
2021/09/09 09:02:17;;;;;;;8.18;6.88;;;26.10;99.90;;;;;;21097351;28;20646;-79
2021/09/09 09:12:18;;;;;;;9.63;7.13;;;26.70;99.90;;;;;;21096512;28;20044;-79
2021/09/09 09:22:19;;;;;;;11.68;7.00;;;27.20;99.90;;;;;;21098975;28;20077;-79
2021/09/09 09:32:21;;;;;;;11.73;6.82;;;27.50;99.90;;;;;;21097311;28;20045;-79
2021/09/09 09:42:26;;;;;;;13.68;7.57;;;26.10;99.90;;;;;;21094632;28;20047;-79
2021/09/09 09:52:29;;;;;;;10.82;7.07;;;25.20;99.90;;;;;;21094107;28;20036;-79
2021/09/09 10:02:33;;;;;;;10.15;6.65;;;26.50;99.90;;;;;;21096175;28;20028;-79
2021/09/09 10:12:34;;;;;;;6.90;5.50;;;28.70;99.90;;;;;;21094324;28;20052;-79
2021/09/09 10:22:35;;;;;;;6.07;4.60;;;28.60;99.90;;;;;;21081009;28;20024;-78
2021/09/09 10:32:36;;;;;;;15.77;6.10;;;28.70;99.90;;;;;;21091704;28;20106;-79
2021/09/09 10:42:39;;;;;;;8.00;4.45;;;29.20;99.90;;;;;;21108636;28;20032;-79
2021/09/09 10:52:59;;;;;;;6.82;4.72;;;29.90;99.90;;;;;;21090303;28;20035;-79
2021/09/09 11:03:00;;;;;;;6.80;4.30;;;28.50;99.90;;;;;;21106323;28;20072;-78
2021/09/09 11:13:01;;;;;;;12.23;4.03;;;27.40;99.90;;;;;;21104523;28;20039;-78
2021/09/09 11:23:09;;;;;;;4.68;2.75;;;27.30;99.90;;;;;;21100768;28;20028;-78
2021/09/09 11:33:13;;;;;;;5.05;3.60;;;27.00;99.90;;;;;;21100919;28;20130;-78
2021/09/09 11:43:14;;;;;;;6.82;4.22;;;27.90;99.90;;;;;;21095831;22;20048;-75
2021/09/09 11:53:25;;;;;;;4.20;3.30;;;27.30;99.90;;;;;;21024023;28;20028;-78
2021/09/09 12:03:26;;;;;;;7.32;3.92;;;27.40;99.90;;;;;;21073922;28;20032;-78
2021/09/09 12:13:30;;;;;;;8.77;4.20;;;26.70;99.90;;;;;;21088385;28;20046;-78
2021/09/09 12:23:31;;;;;;;7.28;3.80;;;26.00;99.90;;;;;;21092347;28;20020;-78
2021/09/09 12:33:39;;;;;;;6.97;4.35;;;25.60;99.90;;;;;;21051769;28;20086;-78
2021/09/09 12:43:41;;;;;;;7.78;4.47;;;25.20;99.90;;;;;;21091294;28;20374;-78
2021/09/09 12:53:43;;;;;;;8.93;4.95;;;25.00;99.90;;;;;;21092288;28;20422;-78
2021/09/09 13:03:44;;;;;;;8.50;4.47;;;25.40;99.90;;;;;;21092266;28;20162;-77
2021/09/09 13:13:45;;;;;;;6.82;5.22;;;26.40;99.90;;;;;;21063110;28;20036;-77
2021/09/09 13:23:46;;;;;;;;;;;26.00;99.90;;;;;;21057638;28;20058;-76
2021/09/09 13:33:47;;;;;;;7.45;3.75;;;26.10;99.90;;;;;;21067048;28;19919;-78
2021/09/09 13:43:48;;;;;;;4.72;3.03;;;25.40;99.90;;;;;;21067781;28;20043;-78
2021/09/09 13:53:49;;;;;;;3.05;2.38;;;26.20;99.90;;;;;;21094201;28;20115;-78
2021/09/09 14:03:50;;;;;;;;;;;26.80;99.90;;;;;;21109124;28;20046;-79
2021/09/09 14:13:51;;;;;;;7.40;3.30;;;26.30;99.90;;;;;;21111893;28;19912;-79
2021/09/09 14:23:52;;;;;;;;;;;26.60;99.90;;;;;;21108655;28;20298;-79
2021/09/09 14:33:52;;;;;;;5.25;3.75;;;25.90;99.90;;;;;;21075612;28;19918;-78
2021/09/09 14:43:53;;;;;;;5.57;3.17;;;26.20;99.90;;;;;;21108284;28;20024;-79
2021/09/09 14:53:54;;;;;;;;;;;26.20;99.90;;;;;;21096691;28;20031;-79
2021/09/09 15:03:56;;;;;;;4.47;3.00;;;26.10;99.90;;;;;;21114386;28;19953;-78
2021/09/09 15:13:59;;;;;;;5.25;2.88;;;25.90;99.90;;;;;;21104478;28;20301;-78
2021/09/09 15:24:00;;;;;;;4.82;3.38;;;25.60;99.90;;;;;;21079082;28;20050;-78
2021/09/09 15:34:06;;;;;;;;;;;24.70;99.90;;;;;;21084706;28;20397;-79
2021/09/09 15:44:07;;;;;;;4.50;3.53;;;24.10;99.90;;;;;;21077804;28;20277;-78
2021/09/09 15:54:07;;;;;;;8.53;4.00;;;23.60;99.90;;;;;;21077330;28;20031;-78
2021/09/09 16:04:08;;;;;;;8.33;3.60;;;23.40;99.90;;;;;;21077305;28;20035;-78
2021/09/09 16:14:09;;;;;;;6.57;3.70;;;23.00;99.90;;;;;;21078735;28;20036;-78
2021/09/09 16:24:10;;;;;;;6.90;3.72;;;22.90;99.90;;;;;;21077940;28;20080;-78
2021/09/09 16:34:11;;;;;;;7.60;3.87;;;22.60;99.90;;;;;;21074936;28;20125;-77
2021/09/09 16:44:12;;;;;;;11.27;6.53;;;22.20;99.90;;;;;;21085267;28;20043;-78
2021/09/09 16:54:13;;;;;;;7.85;4.07;;;22.00;99.90;;;;;;21077668;28;20067;-78
2021/09/09 17:04:14;;;;;;;8.97;4.07;;;21.90;99.90;;;;;;21077343;28;20035;-78
2021/09/09 17:14:15;;;;;;;10.25;3.80;;;21.70;99.90;;;;;;21071417;28;20124;-78
2021/09/09 17:24:16;;;;;;;7.70;4.27;;;21.60;99.90;;;;;;21075346;28;20032;-78
2021/09/09 17:34:16;;;;;;;8.47;4.50;;;21.50;99.90;;;;;;21069652;28;20398;-77
2021/09/09 17:44:18;;;;;;;8.60;4.30;;;21.20;99.90;;;;;;21063578;22;20059;-75
2021/09/09 17:54:19;;;;;;;10.32;4.40;;;21.00;99.90;;;;;;20991703;28;20039;-75
2021/09/09 18:04:22;;;;;;;5.37;3.70;;;20.70;99.90;;;;;;21034909;28;20032;-76
2021/09/09 18:14:22;;;;;;;5.80;3.83;;;20.70;99.90;;;;;;21063897;28;20035;-75
2021/09/09 18:24:23;;;;;;;8.60;4.73;;;20.30;99.90;;;;;;21137045;28;20043;-76
2021/09/09 18:34:24;;;;;;;6.10;4.87;;;19.60;99.90;;;;;;21135429;28;20031;-75
2021/09/09 18:44:25;;;;;;;11.83;4.67;;;19.30;99.90;;;;;;21141321;28;20066;-76
2021/09/09 18:54:26;;;;;;;9.07;5.30;;;19.30;99.90;;;;;;21151429;28;20031;-75
2021/09/09 19:04:27;;;;;;;6.90;4.93;;;18.90;99.90;;;;;;21133111;28;20027;-75
2021/09/09 19:14:28;;;;;;;8.75;5.05;;;18.80;99.90;;;;;;21119030;28;20028;-76
2021/09/09 19:24:29;;;;;;;9.63;5.40;;;18.60;99.90;;;;;;21064710;28;20039;-75
2021/09/09 19:34:30;;;;;;;8.07;5.30;;;18.50;99.90;;;;;;21055274;28;20286;-75
2021/09/09 19:44:31;;;;;;;10.23;5.70;;;18.40;99.90;;;;;;21063003;28;20460;-76
2021/09/09 19:54:32;;;;;;;6.73;5.17;;;18.40;99.90;;;;;;21062424;28;20844;-75
2021/09/09 20:04:33;;;;;;;;;;;18.60;99.90;;;;;;21061985;28;20039;-75
2021/09/09 20:14:34;;;;;;;8.23;5.77;;;18.50;99.90;;;;;;21060295;28;19916;-75
2021/09/09 20:24:35;;;;;;;10.87;6.17;;;18.20;99.90;;;;;;21041657;28;20043;-75
2021/09/09 20:34:37;;;;;;;6.97;6.03;;;18.00;99.90;;;;;;21058933;28;20039;-74
2021/09/09 20:44:38;;;;;;;9.57;6.00;;;17.80;99.90;;;;;;21058692;28;20093;-75
2021/09/09 20:54:38;;;;;;;8.80;5.90;;;17.50;99.90;;;;;;21058260;28;20040;-75
2021/09/09 21:04:39;;;;;;;8.33;5.77;;;17.60;99.90;;;;;;21038959;28;20055;-75
2021/09/09 21:14:40;;;;;;;9.40;6.90;;;17.10;99.90;;;;;;21057366;28;20028;-75
2021/09/09 21:24:41;;;;;;;12.83;8.03;;;17.20;99.90;;;;;;21053834;28;20039;-73
2021/09/09 21:34:42;;;;;;;13.07;8.07;;;17.60;99.90;;;;;;21058795;28;20464;-74
2021/09/09 21:44:43;;;;;;;11.30;7.43;;;17.70;99.90;;;;;;21097295;28;20568;-74
2021/09/09 21:54:44;;;;;;;8.73;6.00;;;17.70;99.90;;;;;;21139995;28;20063;-74
2021/09/09 22:04:44;;;;;;;14.67;7.87;;;17.50;99.90;;;;;;21157560;28;20450;-74
2021/09/09 22:14:45;;;;;;;11.90;8.80;;;17.50;99.90;;;;;;21157883;28;20059;-73
2021/09/09 22:24:46;;;;;;;27.53;8.57;;;17.60;99.90;;;;;;21172102;28;20027;-74
2021/09/09 22:34:47;;;;;;;13.23;8.47;;;17.60;99.90;;;;;;21089877;28;20405;-74
2021/09/09 22:44:50;;;;;;;19.73;9.33;;;17.30;99.90;;;;;;21109120;28;20031;-73
2021/09/09 22:54:51;;;;;;;14.90;9.15;;;17.10;99.90;;;;;;21173265;28;20089;-74
2021/09/09 23:04:52;;;;;;;13.43;9.80;;;16.60;99.90;;;;;;21100324;28;20032;-73
2021/09/09 23:14:52;;;;;;;17.50;8.40;;;16.40;99.90;;;;;;21086940;28;20028;-74
2021/09/09 23:24:53;;;;;;;15.57;10.20;;;16.50;99.90;;;;;;21086364;28;20035;-73
2021/09/09 23:34:54;;;;;;;11.27;7.50;;;16.80;99.90;;;;;;21082736;28;20394;-74
2021/09/09 23:44:55;;;;;;;10.57;7.53;;;16.80;99.90;;;;;;21056290;22;20064;-78
2021/09/09 23:54:56;;;;;;;14.23;8.30;;;16.80;99.90;;;;;;20972289;28;20393;-78
